sensor_id;sensor_type;location;lat;lon;timestamp;pressure;altitude;pressure_sealevel;temperature;humidity
39105;BME280;46464;51.154;13.812;2023-04-01T00:01:04;52313.97;;;-146.96;82.74
39105;BME280;46464;51.154;13.812;2023-04-01T00:03:32;52391.31;;;-146.96;83.76
39105;BME280;46464;51.154;13.812;2023-04-01T00:06:00;52373.00;;;-146.96;85.59
39105;BME280;46464;51.154;13.812;2023-04-01T00:08:28;52383.16;;;-146.96;85.61
39105;BME280;46464;51.154;13.812;2023-04-01T00:10:55;52342.47;;;-146.96;86.19
39105;BME280;46464;51.154;13.812;2023-04-01T00:13:24;52373.00;;;-146.96;86.11
39105;BME280;46464;51.154;13.812;2023-04-01T00:15:53;52403.50;;;-146.96;86.10
39105;BME280;46464;51.154;13.812;2023-04-01T00:18:21;52379.09;;;-146.96;86.45
39105;BME280;46464;51.154;13.812;2023-04-01T00:20:49;52326.19;;;-146.96;86.41
39105;BME280;46464;51.154;13.812;2023-04-01T00:23:17;52313.97;;;-146.96;85.78
39105;BME280;46464;51.154;13.812;2023-04-01T00:25:44;52356.72;;;-146.96;86.33
39105;BME280;46464;51.154;13.812;2023-04-01T00:28:14;52324.16;;;-146.96;86.47
39105;BME280;46464;51.154;13.812;2023-04-01T00:30:41;52375.03;;;-146.96;86.85
39105;BME280;46464;51.154;13.812;2023-04-01T00:33:08;52336.38;;;-146.96;87.05
39105;BME280;46464;51.154;13.812;2023-04-01T00:35:34;52362.81;;;-146.96;87.51
39105;BME280;46464;51.154;13.812;2023-04-01T00:38:01;52377.06;;;-146.96;86.80
39105;BME280;46464;51.154;13.812;2023-04-01T00:40:33;52377.06;;;-146.96;87.19
39105;BME280;46464;51.154;13.812;2023-04-01T00:43:01;52385.19;;;-146.96;87.96
39105;BME280;46464;51.154;13.812;2023-04-01T00:45:37;52387.22;;;-146.96;88.36
39105;BME280;46464;51.154;13.812;2023-04-01T00:48:15;52385.19;;;-146.96;87.75
39105;BME280;46464;51.154;13.812;2023-04-01T00:50:47;52364.84;;;-146.96;88.02
39105;BME280;46464;51.154;13.812;2023-04-01T00:53:17;52352.66;;;-146.96;87.85
39105;BME280;46464;51.154;13.812;2023-04-01T00:55:50;52318.06;;;-146.96;88.19
39105;BME280;46464;51.154;13.812;2023-04-01T00:58:21;52342.47;;;-146.96;88.03
39105;BME280;46464;51.154;13.812;2023-04-01T01:00:50;52377.06;;;-146.96;88.51
39105;BME280;46464;51.154;13.812;2023-04-01T01:03:17;52350.59;;;-146.96;88.65
39105;BME280;46464;51.154;13.812;2023-04-01T01:06:03;52389.28;;;-146.96;88.11
39105;BME280;46464;51.154;13.812;2023-04-01T01:08:49;52364.84;;;-146.96;87.60
39105;BME280;46464;51.154;13.812;2023-04-01T01:11:25;52348.56;;;-146.96;87.34
39105;BME280;46464;51.154;13.812;2023-04-01T01:14:11;52322.13;;;-146.96;87.36
39105;BME280;46464;51.154;13.812;2023-04-01T01:16:44;52373.00;;;-146.96;87.13
39105;BME280;46464;51.154;13.812;2023-04-01T01:22:32;52393.34;;;-146.96;86.95
39105;BME280;46464;51.154;13.812;2023-04-01T01:33:35;52352.66;;;-146.96;85.59
39105;BME280;46464;51.154;13.812;2023-04-01T01:36:07;52356.72;;;-146.96;84.85
39105;BME280;46464;51.154;13.812;2023-04-01T01:38:36;52366.88;;;-146.96;83.95
39105;BME280;46464;51.154;13.812;2023-04-01T01:41:05;52309.91;;;-146.96;83.79
39105;BME280;46464;51.154;13.812;2023-04-01T01:43:37;52364.84;;;-146.96;83.53
39105;BME280;46464;51.154;13.812;2023-04-01T01:46:10;52360.78;;;-146.96;83.12
39105;BME280;46464;51.154;13.812;2023-04-01T01:48:39;52360.78;;;-146.96;83.29
39105;BME280;46464;51.154;13.812;2023-04-01T01:51:08;52387.22;;;-146.96;83.13
39105;BME280;46464;51.154;13.812;2023-04-01T01:53:35;52381.13;;;-146.96;82.22
39105;BME280;46464;51.154;13.812;2023-04-01T01:56:02;52324.16;;;-146.96;81.78
39105;BME280;46464;51.154;13.812;2023-04-01T02:00:59;52332.28;;;-146.96;82.00
39105;BME280;46464;51.154;13.812;2023-04-01T02:03:29;52391.31;;;-146.96;82.33
39105;BME280;46464;51.154;13.812;2023-04-01T02:05:59;52362.81;;;-146.96;82.71
39105;BME280;46464;51.154;13.812;2023-04-01T02:08:39;52377.06;;;-146.96;83.32
39105;BME280;46464;51.154;13.812;2023-04-01T02:11:09;52362.81;;;-146.96;82.96
39105;BME280;46464;51.154;13.812;2023-04-01T02:13:41;52356.72;;;-146.96;83.59
39105;BME280;46464;51.154;13.812;2023-04-01T02:16:14;52348.56;;;-146.96;84.41
39105;BME280;46464;51.154;13.812;2023-04-01T02:18:44;52360.78;;;-146.96;84.40
39105;BME280;46464;51.154;13.812;2023-04-01T02:21:12;52338.41;;;-146.96;84.19
39105;BME280;46464;51.154;13.812;2023-04-01T02:23:40;52381.13;;;-146.96;85.10
39105;BME280;46464;51.154;13.812;2023-04-01T02:26:08;52354.69;;;-146.96;84.02
39105;BME280;46464;51.154;13.812;2023-04-01T02:28:37;52379.09;;;-146.96;83.96
39105;BME280;46464;51.154;13.812;2023-04-01T02:31:05;52377.06;;;-146.96;84.54
39105;BME280;46464;51.154;13.812;2023-04-01T02:33:32;52330.25;;;-146.96;84.31
39105;BME280;46464;51.154;13.812;2023-04-01T02:35:59;52385.19;;;-146.96;84.77
39105;BME280;46464;51.154;13.812;2023-04-01T02:38:25;52377.06;;;-146.96;84.39
39105;BME280;46464;51.154;13.812;2023-04-01T02:40:58;52391.31;;;-146.96;84.17
39105;BME280;46464;51.154;13.812;2023-04-01T02:43:25;52383.16;;;-146.96;84.25
39105;BME280;46464;51.154;13.812;2023-04-01T02:45:51;52397.41;;;-146.96;82.82
39105;BME280;46464;51.154;13.812;2023-04-01T02:48:18;52387.22;;;-146.96;83.32
39105;BME280;46464;51.154;13.812;2023-04-01T02:50:44;52375.03;;;-146.96;83.40
39105;BME280;46464;51.154;13.812;2023-04-01T02:53:11;52403.50;;;-146.96;82.81
39105;BME280;46464;51.154;13.812;2023-04-01T02:55:38;52366.88;;;-146.96;82.84
39105;BME280;46464;51.154;13.812;2023-04-01T02:58:04;52381.13;;;-146.96;82.51
39105;BME280;46464;51.154;13.812;2023-04-01T03:00:31;52360.78;;;-146.96;82.63
39105;BME280;46464;51.154;13.812;2023-04-01T03:02:57;52342.47;;;-146.96;82.79
39105;BME280;46464;51.154;13.812;2023-04-01T03:05:24;52385.19;;;-146.96;82.13
39105;BME280;46464;51.154;13.812;2023-04-01T03:07:51;52385.19;;;-146.96;82.20
39105;BME280;46464;51.154;13.812;2023-04-01T03:10:17;52338.41;;;-146.96;81.93
39105;BME280;46464;51.154;13.812;2023-04-01T03:12:44;52399.44;;;-146.96;81.81
39105;BME280;46464;51.154;13.812;2023-04-01T03:15:11;52350.59;;;-146.96;81.26
39105;BME280;46464;51.154;13.812;2023-04-01T03:17:39;52334.34;;;-146.96;80.89
39105;BME280;46464;51.154;13.812;2023-04-01T03:20:06;52368.94;;;-146.96;81.40
39105;BME280;46464;51.154;13.812;2023-04-01T03:22:34;52350.59;;;-146.96;81.31
39105;BME280;46464;51.154;13.812;2023-04-01T03:25:02;52346.53;;;-146.96;80.68
39105;BME280;46464;51.154;13.812;2023-04-01T03:27:29;52360.78;;;-146.96;80.75
39105;BME280;46464;51.154;13.812;2023-04-01T03:29:55;52377.06;;;-146.96;80.46
39105;BME280;46464;51.154;13.812;2023-04-01T03:32:22;52373.00;;;-146.96;80.79
39105;BME280;46464;51.154;13.812;2023-04-01T03:34:48;52368.94;;;-146.96;80.19
39105;BME280;46464;51.154;13.812;2023-04-01T03:37:15;52383.16;;;-146.96;80.19
39105;BME280;46464;51.154;13.812;2023-04-01T03:39:41;52391.31;;;-146.96;79.96
39105;BME280;46464;51.154;13.812;2023-04-01T03:42:10;52362.81;;;-146.96;79.65
39105;BME280;46464;51.154;13.812;2023-04-01T03:44:36;52360.78;;;-146.96;79.97
39105;BME280;46464;51.154;13.812;2023-04-01T03:47:03;52348.56;;;-146.96;79.31
39105;BME280;46464;51.154;13.812;2023-04-01T03:49:29;52362.81;;;-146.96;79.96
39105;BME280;46464;51.154;13.812;2023-04-01T03:51:58;52360.78;;;-146.96;79.53
39105;BME280;46464;51.154;13.812;2023-04-01T03:54:25;52348.56;;;-146.96;79.35
39105;BME280;46464;51.154;13.812;2023-04-01T03:56:51;52360.78;;;-146.96;79.50
39105;BME280;46464;51.154;13.812;2023-04-01T03:59:18;52415.72;;;-146.96;79.25
39105;BME280;46464;51.154;13.812;2023-04-01T04:01:46;52352.66;;;-146.96;79.19
39105;BME280;46464;51.154;13.812;2023-04-01T04:04:13;52375.03;;;-146.96;79.11
39105;BME280;46464;51.154;13.812;2023-04-01T04:06:40;52366.88;;;-146.96;79.44
39105;BME280;46464;51.154;13.812;2023-04-01T04:09:06;52377.06;;;-146.96;79.41
39105;BME280;46464;51.154;13.812;2023-04-01T04:11:33;52373.00;;;-146.96;78.92
39105;BME280;46464;51.154;13.812;2023-04-01T04:13:59;52348.56;;;-146.96;78.97
39105;BME280;46464;51.154;13.812;2023-04-01T04:16:26;52356.72;;;-146.96;78.54
39105;BME280;46464;51.154;13.812;2023-04-01T04:18:52;52340.44;;;-146.96;79.46
39105;BME280;46464;51.154;13.812;2023-04-01T04:21:19;52373.00;;;-146.96;79.58
39105;BME280;46464;51.154;13.812;2023-04-01T04:23:45;52360.78;;;-146.96;78.92
39105;BME280;46464;51.154;13.812;2023-04-01T04:26:13;52340.44;;;-146.96;78.92
39105;BME280;46464;51.154;13.812;2023-04-01T04:28:40;52362.81;;;-146.96;78.77
39105;BME280;46464;51.154;13.812;2023-04-01T04:31:07;52340.44;;;-146.96;79.17
39105;BME280;46464;51.154;13.812;2023-04-01T04:33:34;52377.06;;;-146.96;78.77
39105;BME280;46464;51.154;13.812;2023-04-01T04:36:02;52375.03;;;-146.96;78.11
39105;BME280;46464;51.154;13.812;2023-04-01T04:38:28;52366.88;;;-146.96;77.58
39105;BME280;46464;51.154;13.812;2023-04-01T04:40:55;52342.47;;;-146.96;77.66
39105;BME280;46464;51.154;13.812;2023-04-01T04:43:22;52344.50;;;-146.96;77.40
39105;BME280;46464;51.154;13.812;2023-04-01T04:45:49;52395.38;;;-146.96;77.93
39105;BME280;46464;51.154;13.812;2023-04-01T04:48:15;52340.44;;;-146.96;77.51
39105;BME280;46464;51.154;13.812;2023-04-01T04:50:49;52401.47;;;-146.96;77.33
39105;BME280;46464;51.154;13.812;2023-04-01T04:53:18;52330.25;;;-146.96;77.09
39105;BME280;46464;51.154;13.812;2023-04-01T04:55:46;52358.75;;;-146.96;76.16
39105;BME280;46464;51.154;13.812;2023-04-01T04:58:13;52350.59;;;-146.96;76.54
39105;BME280;46464;51.154;13.812;2023-04-01T05:00:40;52344.50;;;-146.96;75.80
39105;BME280;46464;51.154;13.812;2023-04-01T05:03:06;52366.88;;;-146.96;76.08
39105;BME280;46464;51.154;13.812;2023-04-01T05:05:33;52375.03;;;-146.96;76.10
39105;BME280;46464;51.154;13.812;2023-04-01T05:08:00;52330.25;;;-146.96;76.32
39105;BME280;46464;51.154;13.812;2023-04-01T05:10:27;52383.16;;;-146.96;75.45
39105;BME280;46464;51.154;13.812;2023-04-01T05:12:53;52354.69;;;-146.96;76.26
39105;BME280;46464;51.154;13.812;2023-04-01T05:15:23;52362.81;;;-146.96;76.33
39105;BME280;46464;51.154;13.812;2023-04-01T05:17:50;52342.47;;;-146.96;76.56
39105;BME280;46464;51.154;13.812;2023-04-01T05:20:16;52338.41;;;-146.96;76.20
39105;BME280;46464;51.154;13.812;2023-04-01T05:22:43;52366.88;;;-146.96;76.44
39105;BME280;46464;51.154;13.812;2023-04-01T05:25:09;52362.81;;;-146.96;76.61
39105;BME280;46464;51.154;13.812;2023-04-01T05:27:36;52377.06;;;-146.96;76.27
39105;BME280;46464;51.154;13.812;2023-04-01T05:30:03;52373.00;;;-146.96;76.84
39105;BME280;46464;51.154;13.812;2023-04-01T05:32:31;52362.81;;;-146.96;77.59
39105;BME280;46464;51.154;13.812;2023-04-01T05:34:57;52356.72;;;-146.96;77.76
39105;BME280;46464;51.154;13.812;2023-04-01T05:37:24;52362.81;;;-146.96;77.39
39105;BME280;46464;51.154;13.812;2023-04-01T05:39:50;52375.03;;;-146.96;77.38
39105;BME280;46464;51.154;13.812;2023-04-01T05:42:17;52356.72;;;-146.96;77.29
39105;BME280;46464;51.154;13.812;2023-04-01T05:44:43;52358.75;;;-146.96;77.80
39105;BME280;46464;51.154;13.812;2023-04-01T05:47:10;52364.84;;;-146.96;78.34
39105;BME280;46464;51.154;13.812;2023-04-01T05:49:36;52393.34;;;-146.96;78.16
39105;BME280;46464;51.154;13.812;2023-04-01T05:52:03;52391.31;;;-146.96;77.63
39105;BME280;46464;51.154;13.812;2023-04-01T05:54:29;52354.69;;;-146.96;77.55
39105;BME280;46464;51.154;13.812;2023-04-01T05:56:56;52338.41;;;-146.96;77.27
39105;BME280;46464;51.154;13.812;2023-04-01T05:59:22;52377.06;;;-146.96;77.19
39105;BME280;46464;51.154;13.812;2023-04-01T06:01:49;52328.22;;;-146.96;77.15
39105;BME280;46464;51.154;13.812;2023-04-01T06:04:17;52346.53;;;-146.96;77.52
39105;BME280;46464;51.154;13.812;2023-04-01T06:06:44;52362.81;;;-146.96;76.37
39105;BME280;46464;51.154;13.812;2023-04-01T06:09:17;52381.13;;;-146.96;76.52
39105;BME280;46464;51.154;13.812;2023-04-01T06:25:35;52373.00;;;-146.96;76.56
39105;BME280;46464;51.154;13.812;2023-04-01T06:31:10;52356.72;;;-146.96;76.59
39105;BME280;46464;51.154;13.812;2023-04-01T06:36:32;52366.88;;;-146.96;76.65
39105;BME280;46464;51.154;13.812;2023-04-01T06:42:06;52338.41;;;-146.96;76.75
39105;BME280;46464;51.154;13.812;2023-04-01T06:49:56;52350.59;;;-146.96;76.21
39105;BME280;46464;51.154;13.812;2023-04-01T06:52:58;52326.19;;;-146.96;77.24
39105;BME280;46464;51.154;13.812;2023-04-01T06:55:36;52322.13;;;-146.96;76.47
39105;BME280;46464;51.154;13.812;2023-04-01T06:58:16;52358.75;;;-146.96;75.27
39105;BME280;46464;51.154;13.812;2023-04-01T07:00:49;52303.81;;;-146.96;75.11
39105;BME280;46464;51.154;13.812;2023-04-01T07:03:21;52303.81;;;-146.96;74.23
39105;BME280;46464;51.154;13.812;2023-04-01T07:05:49;52346.53;;;-146.96;75.13
39105;BME280;46464;51.154;13.812;2023-04-01T07:08:23;52313.97;;;-146.96;74.14
39105;BME280;46464;51.154;13.812;2023-04-01T07:11:02;52322.13;;;-146.96;73.47
39105;BME280;46464;51.154;13.812;2023-04-01T07:13:41;52299.75;;;-146.96;73.47
39105;BME280;46464;51.154;13.812;2023-04-01T07:21:55;52316.03;;;-146.96;72.67
39105;BME280;46464;51.154;13.812;2023-04-01T07:24:32;52311.94;;;-146.96;72.71
39105;BME280;46464;51.154;13.812;2023-04-01T07:27:00;52332.28;;;-146.96;72.75
39105;BME280;46464;51.154;13.812;2023-04-01T07:29:26;52295.66;;;-146.96;72.20
39105;BME280;46464;51.154;13.812;2023-04-01T07:32:13;52299.75;;;-146.96;71.56
39105;BME280;46464;51.154;13.812;2023-04-01T07:43:15;52318.06;;;-146.96;70.36
39105;BME280;46464;51.154;13.812;2023-04-01T07:45:53;52346.53;;;-146.96;71.45
39105;BME280;46464;51.154;13.812;2023-04-01T07:51:02;52311.94;;;-146.96;69.77
39105;BME280;46464;51.154;13.812;2023-04-01T07:53:46;52305.84;;;-146.96;70.19
39105;BME280;46464;51.154;13.812;2023-04-01T07:56:24;52303.81;;;-146.96;69.97
39105;BME280;46464;51.154;13.812;2023-04-01T07:59:21;52287.53;;;-146.96;71.00
39105;BME280;46464;51.154;13.812;2023-04-01T08:10:46;52320.09;;;-146.96;69.91
39105;BME280;46464;51.154;13.812;2023-04-01T08:16:11;52254.97;;;-146.96;69.05
39105;BME280;46464;51.154;13.812;2023-04-01T08:18:50;52303.81;;;-146.96;68.74
39105;BME280;46464;51.154;13.812;2023-04-01T08:21:24;52279.41;;;-146.96;69.59
39105;BME280;46464;51.154;13.812;2023-04-01T08:23:52;52277.34;;;-146.96;68.39
39105;BME280;46464;51.154;13.812;2023-04-01T08:26:28;52267.19;;;-146.96;70.22
39105;BME280;46464;51.154;13.812;2023-04-01T08:29:16;52281.44;;;-146.96;69.36
39105;BME280;46464;51.154;13.812;2023-04-01T08:32:03;52277.34;;;-146.96;67.92
39105;BME280;46464;51.154;13.812;2023-04-01T08:34:40;52267.19;;;-146.96;69.18
39105;BME280;46464;51.154;13.812;2023-04-01T08:37:14;52265.16;;;-146.96;69.56
39105;BME280;46464;51.154;13.812;2023-04-01T08:39:51;52263.13;;;-146.96;68.86
39105;BME280;46464;51.154;13.812;2023-04-01T08:48:15;52283.47;;;-146.96;68.66
39105;BME280;46464;51.154;13.812;2023-04-01T09:01:16;52287.53;;;-146.96;68.11
39105;BME280;46464;51.154;13.812;2023-04-01T09:04:13;52303.81;;;-146.96;68.39
39105;BME280;46464;51.154;13.812;2023-04-01T09:07:29;52259.03;;;-146.96;66.59
39105;BME280;46464;51.154;13.812;2023-04-01T09:12:52;52289.56;;;-146.96;66.23
39105;BME280;46464;51.154;13.812;2023-04-01T09:18:43;52267.19;;;-146.96;67.10
39105;BME280;46464;51.154;13.812;2023-04-01T09:21:27;52250.91;;;-146.96;66.69
39105;BME280;46464;51.154;13.812;2023-04-01T09:24:19;52277.34;;;-146.96;67.51
39105;BME280;46464;51.154;13.812;2023-04-01T09:27:22;52263.13;;;-146.96;65.68
39105;BME280;46464;51.154;13.812;2023-04-01T09:46:14;52252.94;;;-146.96;65.69
39105;BME280;46464;51.154;13.812;2023-04-01T09:49:46;52257.00;;;-146.96;67.30
39105;BME280;46464;51.154;13.812;2023-04-01T09:54:40;52267.19;;;-146.96;66.24
39105;BME280;46464;51.154;13.812;2023-04-01T09:57:39;52283.47;;;-146.96;67.33
39105;BME280;46464;51.154;13.812;2023-04-01T10:00:39;52287.53;;;-146.96;66.85
39105;BME280;46464;51.154;13.812;2023-04-01T10:41:57;52252.94;;;-146.96;64.25
39105;BME280;46464;51.154;13.812;2023-04-01T11:01:36;52250.91;;;-146.96;72.15
39105;BME280;46464;51.154;13.812;2023-04-01T11:04:38;52289.56;;;-146.96;75.07
39105;BME280;46464;51.154;13.812;2023-04-01T11:19:02;52303.81;;;-146.96;78.80
39105;BME280;46464;51.154;13.812;2023-04-01T11:24:45;52277.34;;;-146.96;79.18
39105;BME280;46464;51.154;13.812;2023-04-01T11:32:54;52275.31;;;-146.96;80.19
39105;BME280;46464;51.154;13.812;2023-04-01T11:35:36;52311.94;;;-146.96;79.24
39105;BME280;46464;51.154;13.812;2023-04-01T11:41:37;52285.50;;;-146.96;78.93
39105;BME280;46464;51.154;13.812;2023-04-01T11:44:22;52250.91;;;-146.96;77.19
39105;BME280;46464;51.154;13.812;2023-04-01T11:47:18;52289.56;;;-146.96;79.70
39105;BME280;46464;51.154;13.812;2023-04-01T11:53:07;52261.09;;;-146.96;76.81
39105;BME280;46464;51.154;13.812;2023-04-01T11:56:02;52238.69;;;-146.96;75.90
39105;BME280;46464;51.154;13.812;2023-04-01T12:01:33;52279.41;;;-146.96;74.25
39105;BME280;46464;51.154;13.812;2023-04-01T12:04:27;52254.97;;;-146.96;74.69
39105;BME280;46464;51.154;13.812;2023-04-01T12:12:40;52269.22;;;-146.96;71.39
39105;BME280;46464;51.154;13.812;2023-04-01T12:18:18;52242.78;;;-146.96;73.46
39105;BME280;46464;51.154;13.812;2023-04-01T12:21:02;52222.41;;;-146.96;72.61
39105;BME280;46464;51.154;13.812;2023-04-01T12:26:19;52216.31;;;-146.96;68.97
39105;BME280;46464;51.154;13.812;2023-04-01T12:34:51;52218.34;;;-146.96;66.85
39105;BME280;46464;51.154;13.812;2023-04-01T12:37:58;52242.78;;;-146.96;66.60
39105;BME280;46464;51.154;13.812;2023-04-01T12:40:44;52240.75;;;-146.96;65.79
39105;BME280;46464;51.154;13.812;2023-04-01T12:51:56;52173.59;;;-146.96;65.25
39105;BME280;46464;51.154;13.812;2023-04-01T12:54:33;52254.97;;;-146.96;63.93
39105;BME280;46464;51.154;13.812;2023-04-01T12:57:28;52212.25;;;-146.96;64.21
39105;BME280;46464;51.154;13.812;2023-04-01T13:00:26;52191.91;;;-146.96;64.50
39105;BME280;46464;51.154;13.812;2023-04-01T13:03:17;52212.25;;;-146.96;65.87
39105;BME280;46464;51.154;13.812;2023-04-01T13:11:33;52191.91;;;-146.96;65.21
39105;BME280;46464;51.154;13.812;2023-04-01T13:20:03;52195.97;;;-146.96;64.05
39105;BME280;46464;51.154;13.812;2023-04-01T13:30:39;52153.25;;;-146.96;61.27
39105;BME280;46464;51.154;13.812;2023-04-01T13:35:48;52159.34;;;-146.96;62.16
39105;BME280;46464;51.154;13.812;2023-04-01T13:44:07;52177.66;;;-146.96;61.05
39105;BME280;46464;51.154;13.812;2023-04-01T13:46:50;52155.28;;;-146.96;61.13
39105;BME280;46464;51.154;13.812;2023-04-01T13:49:32;52177.66;;;-146.96;62.13
39105;BME280;46464;51.154;13.812;2023-04-01T13:52:32;52169.53;;;-146.96;61.64
39105;BME280;46464;51.154;13.812;2023-04-01T13:55:23;52155.28;;;-146.96;62.26
39105;BME280;46464;51.154;13.812;2023-04-01T14:08:28;52236.66;;;-146.96;70.08
39105;BME280;46464;51.154;13.812;2023-04-01T14:11:39;52216.31;;;-146.96;71.18
39105;BME280;46464;51.154;13.812;2023-04-01T14:31:43;52234.63;;;-146.96;75.46
39105;BME280;46464;51.154;13.812;2023-04-01T14:34:21;52287.53;;;-146.96;73.79
39105;BME280;46464;51.154;13.812;2023-04-01T14:37:13;52257.00;;;-146.96;74.79
39105;BME280;46464;51.154;13.812;2023-04-01T14:40:05;52250.91;;;-146.96;74.48
39105;BME280;46464;51.154;13.812;2023-04-01T14:43:22;52279.41;;;-146.96;75.13
39105;BME280;46464;51.154;13.812;2023-04-01T14:49:04;52257.00;;;-146.96;75.27
39105;BME280;46464;51.154;13.812;2023-04-01T14:51:40;52257.00;;;-146.96;75.26
39105;BME280;46464;51.154;13.812;2023-04-01T14:54:19;52267.19;;;-146.96;75.79
39105;BME280;46464;51.154;13.812;2023-04-01T14:57:11;52267.19;;;-146.96;75.80
39105;BME280;46464;51.154;13.812;2023-04-01T14:59:40;52246.84;;;-146.96;75.98
39105;BME280;46464;51.154;13.812;2023-04-01T15:05:23;52218.34;;;-146.96;75.57
39105;BME280;46464;51.154;13.812;2023-04-01T15:08:01;52200.03;;;-146.96;75.06
39105;BME280;46464;51.154;13.812;2023-04-01T15:13:37;52261.09;;;-146.96;74.78
39105;BME280;46464;51.154;13.812;2023-04-01T15:16:18;52252.94;;;-146.96;74.67
39105;BME280;46464;51.154;13.812;2023-04-01T15:24:20;52228.53;;;-146.96;74.75
39105;BME280;46464;51.154;13.812;2023-04-01T15:27:25;52246.84;;;-146.96;74.91
39105;BME280;46464;51.154;13.812;2023-04-01T15:30:18;52252.94;;;-146.96;75.17
39105;BME280;46464;51.154;13.812;2023-04-01T15:41:16;52244.81;;;-146.96;73.48
39105;BME280;46464;51.154;13.812;2023-04-01T15:43:45;52244.81;;;-146.96;73.13
39105;BME280;46464;51.154;13.812;2023-04-01T15:49:39;52232.59;;;-146.96;74.44
39105;BME280;46464;51.154;13.812;2023-04-01T16:00:56;52171.56;;;-146.96;62.57
39105;BME280;46464;51.154;13.812;2023-04-01T16:03:38;52200.03;;;-146.96;63.22
39105;BME280;46464;51.154;13.812;2023-04-01T16:19:39;52208.19;;;-146.96;63.66
39105;BME280;46464;51.154;13.812;2023-04-01T16:22:19;52226.50;;;-146.96;63.60
39105;BME280;46464;51.154;13.812;2023-04-01T16:24:59;52254.97;;;-146.96;64.04
39105;BME280;46464;51.154;13.812;2023-04-01T16:27:44;52240.75;;;-146.96;63.67
39105;BME280;46464;51.154;13.812;2023-04-01T16:30:38;52250.91;;;-146.96;64.38
39105;BME280;46464;51.154;13.812;2023-04-01T16:33:32;52230.56;;;-146.96;63.72
39105;BME280;46464;51.154;13.812;2023-04-01T16:36:30;52238.69;;;-146.96;63.05
39105;BME280;46464;51.154;13.812;2023-04-01T16:42:44;52259.03;;;-146.96;63.97
39105;BME280;46464;51.154;13.812;2023-04-01T16:47:52;52269.22;;;-146.96;64.86
39105;BME280;46464;51.154;13.812;2023-04-01T16:50:53;52236.66;;;-146.96;65.74
39105;BME280;46464;51.154;13.812;2023-04-01T16:53:43;52214.28;;;-146.96;66.29
39105;BME280;46464;51.154;13.812;2023-04-01T16:56:28;52267.19;;;-146.96;66.08
39105;BME280;46464;51.154;13.812;2023-04-01T16:59:20;52242.78;;;-146.96;66.01
39105;BME280;46464;51.154;13.812;2023-04-01T17:02:02;52244.81;;;-146.96;66.60
39105;BME280;46464;51.154;13.812;2023-04-01T17:04:39;52244.81;;;-146.96;66.58
39105;BME280;46464;51.154;13.812;2023-04-01T17:07:23;52289.56;;;-146.96;67.42
39105;BME280;46464;51.154;13.812;2023-04-01T17:10:37;52259.03;;;-146.96;67.79
39105;BME280;46464;51.154;13.812;2023-04-01T17:18:54;52224.47;;;-146.96;66.73
39105;BME280;46464;51.154;13.812;2023-04-01T17:21:37;52313.97;;;-146.96;67.76
39105;BME280;46464;51.154;13.812;2023-04-01T17:35:32;52295.66;;;-146.96;71.20
39105;BME280;46464;51.154;13.812;2023-04-01T17:38:19;52277.34;;;-146.96;72.00
39105;BME280;46464;51.154;13.812;2023-04-01T17:43:55;52324.16;;;-146.96;74.80
39105;BME280;46464;51.154;13.812;2023-04-01T17:46:42;52277.34;;;-146.96;75.95
39105;BME280;46464;51.154;13.812;2023-04-01T17:52:17;52330.25;;;-146.96;77.28
39105;BME280;46464;51.154;13.812;2023-04-01T17:58:08;52297.72;;;-146.96;78.06
39105;BME280;46464;51.154;13.812;2023-04-01T18:22:41;52326.19;;;-146.96;80.05
39105;BME280;46464;51.154;13.812;2023-04-01T18:25:30;52362.81;;;-146.96;80.09
39105;BME280;46464;51.154;13.812;2023-04-01T18:30:29;52287.53;;;-146.96;80.85
39105;BME280;46464;51.154;13.812;2023-04-01T18:33:42;52334.34;;;-146.96;81.03
39105;BME280;46464;51.154;13.812;2023-04-01T18:38:55;52303.81;;;-146.96;81.45
39105;BME280;46464;51.154;13.812;2023-04-01T18:41:32;52342.47;;;-146.96;81.61
39105;BME280;46464;51.154;13.812;2023-04-01T18:44:25;52332.28;;;-146.96;81.72
39105;BME280;46464;51.154;13.812;2023-04-01T18:49:56;52322.13;;;-146.96;82.93
39105;BME280;46464;51.154;13.812;2023-04-01T18:52:32;52338.41;;;-146.96;83.73
39105;BME280;46464;51.154;13.812;2023-04-01T18:57:40;52334.34;;;-146.96;86.08
39105;BME280;46464;51.154;13.812;2023-04-01T19:00:14;52344.50;;;-146.96;85.46
39105;BME280;46464;51.154;13.812;2023-04-01T19:02:50;52322.13;;;-146.96;85.45
39105;BME280;46464;51.154;13.812;2023-04-01T19:05:29;52320.09;;;-146.96;85.55
39105;BME280;46464;51.154;13.812;2023-04-01T19:08:33;52330.25;;;-146.96;85.78
39105;BME280;46464;51.154;13.812;2023-04-01T19:11:07;52330.25;;;-146.96;85.74
39105;BME280;46464;51.154;13.812;2023-04-01T19:19:37;52334.34;;;-146.96;86.12
39105;BME280;46464;51.154;13.812;2023-04-01T19:22:19;52318.06;;;-146.96;86.15
39105;BME280;46464;51.154;13.812;2023-04-01T19:25:02;52342.47;;;-146.96;86.47
39105;BME280;46464;51.154;13.812;2023-04-01T19:27:41;52358.75;;;-146.96;87.07
39105;BME280;46464;51.154;13.812;2023-04-01T19:35:42;52342.47;;;-146.96;88.43
39105;BME280;46464;51.154;13.812;2023-04-01T19:38:26;52332.28;;;-146.96;88.33
39105;BME280;46464;51.154;13.812;2023-04-01T19:41:30;52375.03;;;-146.96;88.68
39105;BME280;46464;51.154;13.812;2023-04-01T19:49:41;52356.72;;;-146.96;89.10
39105;BME280;46464;51.154;13.812;2023-04-01T19:52:15;52318.06;;;-146.96;89.28
39105;BME280;46464;51.154;13.812;2023-04-01T20:03:05;52316.03;;;-146.96;89.72
39105;BME280;46464;51.154;13.812;2023-04-01T20:08:26;52336.38;;;-146.96;89.63
39105;BME280;46464;51.154;13.812;2023-04-01T20:11:21;52366.88;;;-146.96;89.63
39105;BME280;46464;51.154;13.812;2023-04-01T20:14:12;52358.75;;;-146.96;90.12